sensor_id;sensor_type;location;lat;lon;timestamp;pressure;altitude;pressure_sealevel;temperature;humidity
32759;BME280;19125;52.360;9.974;2023-05-18T00:02:05;86975.13;;;-145.17;54.38
32759;BME280;19125;52.360;9.974;2023-05-18T00:04:35;86985.06;;;-145.17;54.33
32759;BME280;19125;52.360;9.974;2023-05-18T00:07:01;87006.88;;;-145.17;54.04
32759;BME280;19125;52.360;9.974;2023-05-18T00:09:33;86998.94;;;-145.17;54.56
32759;BME280;19125;52.360;9.974;2023-05-18T00:11:59;87020.78;;;-145.17;54.45
32759;BME280;19125;52.360;9.974;2023-05-18T00:14:25;86996.97;;;-145.17;54.61
32759;BME280;19125;52.360;9.974;2023-05-18T00:16:51;86991.00;;;-145.17;54.87
32759;BME280;19125;52.360;9.974;2023-05-18T00:19:18;87022.78;;;-145.17;54.75
32759;BME280;19125;52.360;9.974;2023-05-18T00:21:45;87034.69;;;-145.17;54.99
32759;BME280;19125;52.360;9.974;2023-05-18T00:24:11;87026.75;;;-145.17;54.89
32759;BME280;19125;52.360;9.974;2023-05-18T00:26:41;87034.69;;;-145.17;55.01
32759;BME280;19125;52.360;9.974;2023-05-18T00:29:07;87026.75;;;-145.17;54.85
32759;BME280;19125;52.360;9.974;2023-05-18T00:31:33;87076.34;;;-145.17;54.87
32759;BME280;19125;52.360;9.974;2023-05-18T00:34:01;87034.69;;;-145.17;55.08
32759;BME280;19125;52.360;9.974;2023-05-18T00:36:27;87068.41;;;-145.17;55.11
32759;BME280;19125;52.360;9.974;2023-05-18T00:38:52;87054.53;;;-145.17;55.24
32759;BME280;19125;52.360;9.974;2023-05-18T00:41:17;87096.22;;;-145.17;55.50
32759;BME280;19125;52.360;9.974;2023-05-18T00:43:43;87096.22;;;-145.17;55.82
32759;BME280;19125;52.360;9.974;2023-05-18T00:46:08;87100.19;;;-145.17;55.60
32759;BME280;19125;52.360;9.974;2023-05-18T00:48:34;87112.09;;;-145.17;56.00
32759;BME280;19125;52.360;9.974;2023-05-18T00:50:59;87137.88;;;-145.17;56.27
32759;BME280;19125;52.360;9.974;2023-05-18T00:53:25;87135.91;;;-145.17;56.12
32759;BME280;19125;52.360;9.974;2023-05-18T00:55:51;87118.03;;;-145.17;55.95
32759;BME280;19125;52.360;9.974;2023-05-18T00:58:17;87114.06;;;-145.17;56.36
32759;BME280;19125;52.360;9.974;2023-05-18T01:00:43;87125.97;;;-145.17;56.33
32759;BME280;19125;52.360;9.974;2023-05-18T01:03:08;87110.09;;;-145.17;55.97
32759;BME280;19125;52.360;9.974;2023-05-18T01:05:35;87179.56;;;-145.17;56.37
32759;BME280;19125;52.360;9.974;2023-05-18T01:08:00;87135.91;;;-145.17;56.49
32759;BME280;19125;52.360;9.974;2023-05-18T01:10:27;87133.91;;;-145.17;55.92
32759;BME280;19125;52.360;9.974;2023-05-18T01:13:04;87141.84;;;-145.17;56.06
32759;BME280;19125;52.360;9.974;2023-05-18T01:15:36;87139.88;;;-145.17;56.51
32759;BME280;19125;52.360;9.974;2023-05-18T01:18:18;87145.81;;;-145.17;56.25
32759;BME280;19125;52.360;9.974;2023-05-18T01:21:17;87116.06;;;-145.17;56.72
32759;BME280;19125;52.360;9.974;2023-05-18T01:26:16;87167.66;;;-145.17;56.26
32759;BME280;19125;52.360;9.974;2023-05-18T01:28:49;87163.69;;;-145.17;56.58
32759;BME280;19125;52.360;9.974;2023-05-18T01:31:16;87163.69;;;-145.17;56.98
32759;BME280;19125;52.360;9.974;2023-05-18T01:33:42;87177.59;;;-145.17;57.18
32759;BME280;19125;52.360;9.974;2023-05-18T01:36:08;87215.31;;;-145.17;56.90
32759;BME280;19125;52.360;9.974;2023-05-18T01:38:34;87189.50;;;-145.17;57.18
32759;BME280;19125;52.360;9.974;2023-05-18T01:41:11;87247.06;;;-145.17;56.97
32759;BME280;19125;52.360;9.974;2023-05-18T01:43:44;87247.06;;;-145.17;57.41
32759;BME280;19125;52.360;9.974;2023-05-18T01:46:33;87235.16;;;-145.17;57.51
32759;BME280;19125;52.360;9.974;2023-05-18T01:49:06;87211.31;;;-145.17;57.53
32759;BME280;19125;52.360;9.974;2023-05-18T01:51:36;87203.38;;;-145.17;57.71
32759;BME280;19125;52.360;9.974;2023-05-18T01:54:06;87227.22;;;-145.17;57.26
32759;BME280;19125;52.360;9.974;2023-05-18T01:56:33;87219.28;;;-145.17;57.75
32759;BME280;19125;52.360;9.974;2023-05-18T01:58:59;87229.19;;;-145.17;57.75
32759;BME280;19125;52.360;9.974;2023-05-18T02:01:24;87282.78;;;-145.17;57.77
32759;BME280;19125;52.360;9.974;2023-05-18T02:03:50;87266.91;;;-145.17;57.63
32759;BME280;19125;52.360;9.974;2023-05-18T02:06:15;87247.06;;;-145.17;57.65
32759;BME280;19125;52.360;9.974;2023-05-18T02:08:41;87294.69;;;-145.17;57.81
32759;BME280;19125;52.360;9.974;2023-05-18T02:11:07;87262.94;;;-145.17;58.16
32759;BME280;19125;52.360;9.974;2023-05-18T02:13:33;87274.84;;;-145.17;57.96
32759;BME280;19125;52.360;9.974;2023-05-18T02:15:58;87276.84;;;-145.17;58.08
32759;BME280;19125;52.360;9.974;2023-05-18T02:18:23;87296.69;;;-145.17;57.67
32759;BME280;19125;52.360;9.974;2023-05-18T02:20:57;87286.75;;;-145.17;57.67
32759;BME280;19125;52.360;9.974;2023-05-18T02:23:23;87314.53;;;-145.17;58.58
32759;BME280;19125;52.360;9.974;2023-05-18T02:25:48;87326.44;;;-145.17;58.24
32759;BME280;19125;52.360;9.974;2023-05-18T02:28:13;87322.47;;;-145.17;58.28
32759;BME280;19125;52.360;9.974;2023-05-18T02:30:39;87332.41;;;-145.17;58.34
32759;BME280;19125;52.360;9.974;2023-05-18T02:33:04;87330.44;;;-145.17;58.38
32759;BME280;19125;52.360;9.974;2023-05-18T02:35:29;87372.09;;;-145.17;58.94
32759;BME280;19125;52.360;9.974;2023-05-18T02:37:55;87342.34;;;-145.17;58.35
32759;BME280;19125;52.360;9.974;2023-05-18T02:40:22;87334.41;;;-145.17;58.74
32759;BME280;19125;52.360;9.974;2023-05-18T02:42:47;87364.16;;;-145.17;58.68
32759;BME280;19125;52.360;9.974;2023-05-18T02:45:12;87366.16;;;-145.17;58.45
32759;BME280;19125;52.360;9.974;2023-05-18T02:47:38;87386.00;;;-145.17;58.96
32759;BME280;19125;52.360;9.974;2023-05-18T02:50:03;87417.75;;;-145.17;59.30
32759;BME280;19125;52.360;9.974;2023-05-18T02:52:29;87429.66;;;-145.17;59.42
32759;BME280;19125;52.360;9.974;2023-05-18T02:54:55;87417.75;;;-145.17;59.11
32759;BME280;19125;52.360;9.974;2023-05-18T02:57:20;87487.25;;;-145.17;59.91
32759;BME280;19125;52.360;9.974;2023-05-18T02:59:46;87485.25;;;-145.17;59.39
32759;BME280;19125;52.360;9.974;2023-05-18T03:02:12;87461.44;;;-145.17;59.91
32759;BME280;19125;52.360;9.974;2023-05-18T03:04:38;87499.16;;;-145.17;59.95
32759;BME280;19125;52.360;9.974;2023-05-18T03:07:04;87473.34;;;-145.17;59.80
32759;BME280;19125;52.360;9.974;2023-05-18T03:09:31;87520.97;;;-145.17;59.81
32759;BME280;19125;52.360;9.974;2023-05-18T03:11:56;87517.00;;;-145.17;59.68
32759;BME280;19125;52.360;9.974;2023-05-18T03:14:22;87520.97;;;-145.17;59.96
32759;BME280;19125;52.360;9.974;2023-05-18T03:16:47;87513.03;;;-145.17;59.97
32759;BME280;19125;52.360;9.974;2023-05-18T03:19:12;87568.63;;;-145.17;60.19
32759;BME280;19125;52.360;9.974;2023-05-18T03:21:39;87505.09;;;-145.17;59.68
32759;BME280;19125;52.360;9.974;2023-05-18T03:24:05;87574.56;;;-145.17;60.37
32759;BME280;19125;52.360;9.974;2023-05-18T03:26:31;87544.81;;;-145.17;60.16
32759;BME280;19125;52.360;9.974;2023-05-18T03:28:57;87524.94;;;-145.17;60.26
32759;BME280;19125;52.360;9.974;2023-05-18T03:31:23;87556.72;;;-145.17;60.27
32759;BME280;19125;52.360;9.974;2023-05-18T03:33:49;87536.88;;;-145.17;60.60
32759;BME280;19125;52.360;9.974;2023-05-18T03:36:14;87520.97;;;-145.17;59.98
32759;BME280;19125;52.360;9.974;2023-05-18T03:38:40;87550.75;;;-145.17;60.50
32759;BME280;19125;52.360;9.974;2023-05-18T03:41:10;87546.78;;;-145.17;60.25
32759;BME280;19125;52.360;9.974;2023-05-18T03:43:35;87584.50;;;-145.17;59.99
32759;BME280;19125;52.360;9.974;2023-05-18T03:46:01;87540.84;;;-145.17;60.33
32759;BME280;19125;52.360;9.974;2023-05-18T03:48:26;87552.75;;;-145.17;59.96
32759;BME280;19125;52.360;9.974;2023-05-18T03:50:51;87536.88;;;-145.17;60.37
32759;BME280;19125;52.360;9.974;2023-05-18T03:53:17;87536.88;;;-145.17;60.13
32759;BME280;19125;52.360;9.974;2023-05-18T03:55:44;87493.19;;;-145.17;59.99
32759;BME280;19125;52.360;9.974;2023-05-18T03:58:09;87455.47;;;-145.17;59.96
32759;BME280;19125;52.360;9.974;2023-05-18T04:00:34;87471.34;;;-145.17;59.36
32759;BME280;19125;52.360;9.974;2023-05-18T04:03:00;87354.25;;;-145.17;58.80
32759;BME280;19125;52.360;9.974;2023-05-18T04:05:27;87296.69;;;-145.17;58.17
32759;BME280;19125;52.360;9.974;2023-05-18T04:07:53;87173.63;;;-145.17;57.20
32759;BME280;19125;52.360;9.974;2023-05-18T04:10:22;87088.28;;;-145.17;56.21
32759;BME280;19125;52.360;9.974;2023-05-18T04:12:48;87022.78;;;-145.17;55.07
32759;BME280;19125;52.360;9.974;2023-05-18T04:15:14;86943.38;;;-145.17;54.12
32759;BME280;19125;52.360;9.974;2023-05-18T04:17:39;86921.53;;;-145.17;53.30
32759;BME280;19125;52.360;9.974;2023-05-18T04:20:12;86887.81;;;-145.17;53.01
32759;BME280;19125;52.360;9.974;2023-05-18T04:22:47;86834.22;;;-145.17;52.30
32759;BME280;19125;52.360;9.974;2023-05-18T04:25:14;86867.97;;;-145.17;51.55
32759;BME280;19125;52.360;9.974;2023-05-18T04:27:40;86754.84;;;-145.17;50.81
32759;BME280;19125;52.360;9.974;2023-05-18T04:30:12;86750.88;;;-145.17;50.35
32759;BME280;19125;52.360;9.974;2023-05-18T04:32:37;86782.63;;;-145.17;49.81
32759;BME280;19125;52.360;9.974;2023-05-18T04:35:05;86736.97;;;-145.17;50.36
32759;BME280;19125;52.360;9.974;2023-05-18T04:37:33;86748.88;;;-145.17;50.04
32759;BME280;19125;52.360;9.974;2023-05-18T04:40:00;86731.00;;;-145.17;50.19
32759;BME280;19125;52.360;9.974;2023-05-18T04:42:29;86778.66;;;-145.17;50.59
32759;BME280;19125;52.360;9.974;2023-05-18T04:44:54;86725.06;;;-145.17;51.09
32759;BME280;19125;52.360;9.974;2023-05-18T04:47:20;86774.69;;;-145.17;51.01
32759;BME280;19125;52.360;9.974;2023-05-18T04:49:51;86764.75;;;-145.17;51.35
32759;BME280;19125;52.360;9.974;2023-05-18T04:52:17;86758.81;;;-145.17;50.94
32759;BME280;19125;52.360;9.974;2023-05-18T04:54:43;86770.72;;;-145.17;51.11
32759;BME280;19125;52.360;9.974;2023-05-18T04:57:09;86764.75;;;-145.17;51.53
32759;BME280;19125;52.360;9.974;2023-05-18T04:59:34;86746.91;;;-145.17;51.18
32759;BME280;19125;52.360;9.974;2023-05-18T05:02:02;86774.69;;;-145.17;51.35
32759;BME280;19125;52.360;9.974;2023-05-18T05:04:27;86727.03;;;-145.17;51.60
32759;BME280;19125;52.360;9.974;2023-05-18T05:06:53;86770.72;;;-145.17;51.11
32759;BME280;19125;52.360;9.974;2023-05-18T05:09:18;86723.06;;;-145.17;50.98
32759;BME280;19125;52.360;9.974;2023-05-18T05:11:43;86734.97;;;-145.17;50.71
32759;BME280;19125;52.360;9.974;2023-05-18T05:14:09;86705.22;;;-145.17;51.14
32759;BME280;19125;52.360;9.974;2023-05-18T05:16:34;86687.34;;;-145.17;50.57
32759;BME280;19125;52.360;9.974;2023-05-18T05:19:00;86689.34;;;-145.17;50.81
32759;BME280;19125;52.360;9.974;2023-05-18T05:21:26;86651.63;;;-145.17;50.49
32759;BME280;19125;52.360;9.974;2023-05-18T05:23:51;86665.53;;;-145.17;50.65
32759;BME280;19125;52.360;9.974;2023-05-18T05:26:17;86649.66;;;-145.17;50.10
32759;BME280;19125;52.360;9.974;2023-05-18T05:28:43;86671.47;;;-145.17;50.05
32759;BME280;19125;52.360;9.974;2023-05-18T05:31:08;86639.72;;;-145.17;49.79
32759;BME280;19125;52.360;9.974;2023-05-18T05:33:34;86627.81;;;-145.17;49.54
32759;BME280;19125;52.360;9.974;2023-05-18T05:35:59;86635.75;;;-145.17;50.10
32759;BME280;19125;52.360;9.974;2023-05-18T05:38:25;86615.91;;;-145.17;49.88
32759;BME280;19125;52.360;9.974;2023-05-18T05:40:50;86627.81;;;-145.17;49.33
32759;BME280;19125;52.360;9.974;2023-05-18T05:43:16;86572.25;;;-145.17;49.19
32759;BME280;19125;52.360;9.974;2023-05-18T05:45:41;86574.22;;;-145.17;48.39
32759;BME280;19125;52.360;9.974;2023-05-18T05:48:10;86526.59;;;-145.17;47.78
32759;BME280;19125;52.360;9.974;2023-05-18T05:50:35;86582.16;;;-145.17;47.25
32759;BME280;19125;52.360;9.974;2023-05-18T05:53:00;86516.69;;;-145.17;46.93
32759;BME280;19125;52.360;9.974;2023-05-18T05:55:26;86482.94;;;-145.17;46.80
32759;BME280;19125;52.360;9.974;2023-05-18T05:57:51;86524.63;;;-145.17;46.30
32759;BME280;19125;52.360;9.974;2023-05-18T06:00:17;86528.59;;;-145.17;46.31
32759;BME280;19125;52.360;9.974;2023-05-18T06:02:42;86520.66;;;-145.17;45.44
32759;BME280;19125;52.360;9.974;2023-05-18T06:05:08;86506.75;;;-145.17;45.93
32759;BME280;19125;52.360;9.974;2023-05-18T06:07:34;86500.81;;;-145.17;45.69
32759;BME280;19125;52.360;9.974;2023-05-18T06:10:00;86467.06;;;-145.17;45.29
32759;BME280;19125;52.360;9.974;2023-05-18T06:12:25;86478.97;;;-145.17;45.05
32759;BME280;19125;52.360;9.974;2023-05-18T06:14:50;86447.22;;;-145.17;44.77
32759;BME280;19125;52.360;9.974;2023-05-18T06:17:22;86473.03;;;-145.17;43.84
32759;BME280;19125;52.360;9.974;2023-05-18T06:19:47;86457.16;;;-145.17;43.86
32759;BME280;19125;52.360;9.974;2023-05-18T06:22:12;86492.88;;;-145.17;43.83
32759;BME280;19125;52.360;9.974;2023-05-18T06:24:38;86449.19;;;-145.17;43.82
32759;BME280;19125;52.360;9.974;2023-05-18T06:27:03;86453.16;;;-145.17;43.40
32759;BME280;19125;52.360;9.974;2023-05-18T06:29:29;86445.25;;;-145.17;43.05
32759;BME280;19125;52.360;9.974;2023-05-18T06:31:55;86391.66;;;-145.17;42.74
32759;BME280;19125;52.360;9.974;2023-05-18T06:34:21;86421.41;;;-145.17;42.68
32759;BME280;19125;52.360;9.974;2023-05-18T06:36:46;86393.63;;;-145.17;42.14
32759;BME280;19125;52.360;9.974;2023-05-18T06:39:12;86373.78;;;-145.17;41.82
32759;BME280;19125;52.360;9.974;2023-05-18T06:41:37;86427.38;;;-145.17;41.71
32759;BME280;19125;52.360;9.974;2023-05-18T06:44:03;86383.72;;;-145.17;41.12
32759;BME280;19125;52.360;9.974;2023-05-18T06:46:28;86405.53;;;-145.17;41.02
32759;BME280;19125;52.360;9.974;2023-05-18T06:48:53;86401.56;;;-145.17;40.48
32759;BME280;19125;52.360;9.974;2023-05-18T06:51:19;86373.78;;;-145.17;40.86
32759;BME280;19125;52.360;9.974;2023-05-18T06:53:44;86393.63;;;-145.17;40.40
32759;BME280;19125;52.360;9.974;2023-05-18T06:56:10;86379.75;;;-145.17;40.69
32759;BME280;19125;52.360;9.974;2023-05-18T06:58:37;86330.13;;;-145.17;40.45
32759;BME280;19125;52.360;9.974;2023-05-18T07:01:03;86349.97;;;-145.17;39.73
32759;BME280;19125;52.360;9.974;2023-05-18T07:03:28;86348.00;;;-145.17;39.54
32759;BME280;19125;52.360;9.974;2023-05-18T07:05:54;86322.19;;;-145.17;39.84
32759;BME280;19125;52.360;9.974;2023-05-18T07:08:19;86298.38;;;-145.17;39.73
32759;BME280;19125;52.360;9.974;2023-05-18T07:10:45;86306.31;;;-145.17;38.91
32759;BME280;19125;52.360;9.974;2023-05-18T07:13:10;86300.38;;;-145.17;39.25
32759;BME280;19125;52.360;9.974;2023-05-18T07:15:37;86282.50;;;-145.17;38.87
32759;BME280;19125;52.360;9.974;2023-05-18T07:18:02;86298.38;;;-145.17;39.14
32759;BME280;19125;52.360;9.974;2023-05-18T07:20:27;86314.25;;;-145.17;38.84
32759;BME280;19125;52.360;9.974;2023-05-18T07:22:53;86308.31;;;-145.17;39.29
32759;BME280;19125;52.360;9.974;2023-05-18T07:25:20;86264.66;;;-145.17;39.07
32759;BME280;19125;52.360;9.974;2023-05-18T07:27:45;86280.53;;;-145.17;38.33
32759;BME280;19125;52.360;9.974;2023-05-18T07:30:11;86242.81;;;-145.17;38.01
32759;BME280;19125;52.360;9.974;2023-05-18T07:32:36;86244.81;;;-145.17;38.40
32759;BME280;19125;52.360;9.974;2023-05-18T07:35:02;86250.75;;;-145.17;38.45
32759;BME280;19125;52.360;9.974;2023-05-18T07:37:27;86226.94;;;-145.17;38.29
32759;BME280;19125;52.360;9.974;2023-05-18T07:39:52;86209.09;;;-145.17;38.03
32759;BME280;19125;52.360;9.974;2023-05-18T07:42:18;86195.19;;;-145.17;37.94
32759;BME280;19125;52.360;9.974;2023-05-18T07:44:43;86151.53;;;-145.17;37.52
32759;BME280;19125;52.360;9.974;2023-05-18T07:47:08;86183.28;;;-145.17;37.32
32759;BME280;19125;52.360;9.974;2023-05-18T07:49:34;86171.38;;;-145.17;37.11
32759;BME280;19125;52.360;9.974;2023-05-18T07:51:59;86189.25;;;-145.17;37.35
32759;BME280;19125;52.360;9.974;2023-05-18T07:54:26;86103.91;;;-145.17;37.06
32759;BME280;19125;52.360;9.974;2023-05-18T07:56:52;86123.75;;;-145.17;36.97
32759;BME280;19125;52.360;9.974;2023-05-18T07:59:17;86101.94;;;-145.17;37.35
32759;BME280;19125;52.360;9.974;2023-05-18T08:01:42;86068.19;;;-145.17;36.39
32759;BME280;19125;52.360;9.974;2023-05-18T08:04:09;86080.09;;;-145.17;35.48
32759;BME280;19125;52.360;9.974;2023-05-18T08:06:34;86092.00;;;-145.17;35.74
32759;BME280;19125;52.360;9.974;2023-05-18T08:08:59;86092.00;;;-145.17;35.79
32759;BME280;19125;52.360;9.974;2023-05-18T08:11:24;86119.78;;;-145.17;36.02
32759;BME280;19125;52.360;9.974;2023-05-18T08:13:50;86084.06;;;-145.17;36.71
32759;BME280;19125;52.360;9.974;2023-05-18T08:16:15;86068.19;;;-145.17;35.82
32759;BME280;19125;52.360;9.974;2023-05-18T08:18:41;86022.56;;;-145.17;35.41
32759;BME280;19125;52.360;9.974;2023-05-18T08:21:06;86006.69;;;-145.17;35.08
32759;BME280;19125;52.360;9.974;2023-05-18T08:23:36;86000.72;;;-145.17;35.05
32759;BME280;19125;52.360;9.974;2023-05-18T08:26:02;85949.13;;;-145.17;33.57
32759;BME280;19125;52.360;9.974;2023-05-18T08:28:30;85925.31;;;-145.17;34.04
32759;BME280;19125;52.360;9.974;2023-05-18T08:30:56;85885.66;;;-145.17;33.83
32759;BME280;19125;52.360;9.974;2023-05-18T08:33:21;85883.66;;;-145.17;33.49
32759;BME280;19125;52.360;9.974;2023-05-18T08:35:47;85899.53;;;-145.17;33.56
32759;BME280;19125;52.360;9.974;2023-05-18T08:38:13;85865.81;;;-145.17;33.17
32759;BME280;19125;52.360;9.974;2023-05-18T08:40:52;85842.00;;;-145.17;32.80
32759;BME280;19125;52.360;9.974;2023-05-18T08:43:21;85818.19;;;-145.17;32.61
32759;BME280;19125;52.360;9.974;2023-05-18T08:48:23;85905.47;;;-145.17;32.54
32759;BME280;19125;52.360;9.974;2023-05-18T08:50:49;85840.00;;;-145.17;32.71
32759;BME280;19125;52.360;9.974;2023-05-18T08:53:17;85818.19;;;-145.17;32.05
32759;BME280;19125;52.360;9.974;2023-05-18T08:55:50;85871.75;;;-145.17;32.25
32759;BME280;19125;52.360;9.974;2023-05-18T08:58:29;85842.00;;;-145.17;32.50
32759;BME280;19125;52.360;9.974;2023-05-18T09:00:57;85830.09;;;-145.17;32.58
32759;BME280;19125;52.360;9.974;2023-05-18T09:03:23;85788.41;;;-145.17;32.38
32759;BME280;19125;52.360;9.974;2023-05-18T09:05:50;85758.66;;;-145.17;32.42
32759;BME280;19125;52.360;9.974;2023-05-18T09:08:17;85711.03;;;-145.17;31.35
32759;BME280;19125;52.360;9.974;2023-05-18T09:10:43;85671.34;;;-145.17;31.41
32759;BME280;19125;52.360;9.974;2023-05-18T09:13:10;85703.09;;;-145.17;30.93
32759;BME280;19125;52.360;9.974;2023-05-18T09:15:36;85774.53;;;-145.17;31.04
32759;BME280;19125;52.360;9.974;2023-05-18T09:18:04;85758.66;;;-145.17;31.11
32759;BME280;19125;52.360;9.974;2023-05-18T09:20:29;85746.75;;;-145.17;31.50
32759;BME280;19125;52.360;9.974;2023-05-18T09:22:55;85764.59;;;-145.17;31.25
32759;BME280;19125;52.360;9.974;2023-05-18T09:25:22;85728.88;;;-145.17;31.01
32759;BME280;19125;52.360;9.974;2023-05-18T09:27:48;85649.53;;;-145.17;30.87
32759;BME280;19125;52.360;9.974;2023-05-18T09:30:15;85631.66;;;-145.17;30.24
32759;BME280;19125;52.360;9.974;2023-05-18T09:32:41;85599.94;;;-145.17;30.51
32759;BME280;19125;52.360;9.974;2023-05-18T09:35:07;85647.53;;;-145.17;30.33
32759;BME280;19125;52.360;9.974;2023-05-18T09:37:34;85619.75;;;-145.17;29.98
32759;BME280;19125;52.360;9.974;2023-05-18T09:40:02;85568.19;;;-145.17;29.94
32759;BME280;19125;52.360;9.974;2023-05-18T09:42:40;85633.66;;;-145.17;29.31
32759;BME280;19125;52.360;9.974;2023-05-18T09:45:19;85599.94;;;-145.17;29.84
32759;BME280;19125;52.360;9.974;2023-05-18T09:47:49;85615.78;;;-145.17;29.97
32759;BME280;19125;52.360;9.974;2023-05-18T09:50:18;85599.94;;;-145.17;29.53
32759;BME280;19125;52.360;9.974;2023-05-18T09:52:44;85548.34;;;-145.17;29.27
32759;BME280;19125;52.360;9.974;2023-05-18T09:55:11;85548.34;;;-145.17;29.28
32759;BME280;19125;52.360;9.974;2023-05-18T09:57:43;85544.38;;;-145.17;29.01
32759;BME280;19125;52.360;9.974;2023-05-18T10:00:09;85546.34;;;-145.17;29.82
32759;BME280;19125;52.360;9.974;2023-05-18T10:02:38;85532.47;;;-145.17;29.52
32759;BME280;19125;52.360;9.974;2023-05-18T10:05:04;85520.56;;;-145.17;28.73
32759;BME280;19125;52.360;9.974;2023-05-18T10:07:29;85528.50;;;-145.17;28.94
32759;BME280;19125;52.360;9.974;2023-05-18T10:10:02;85552.31;;;-145.17;28.71
32759;BME280;19125;52.360;9.974;2023-05-18T10:12:27;85631.66;;;-145.17;29.26
32759;BME280;19125;52.360;9.974;2023-05-18T10:14:53;85635.63;;;-145.17;29.47
32759;BME280;19125;52.360;9.974;2023-05-18T10:17:18;85742.78;;;-145.17;30.06
32759;BME280;19125;52.360;9.974;2023-05-18T10:19:45;85717.00;;;-145.17;30.97
32759;BME280;19125;52.360;9.974;2023-05-18T10:22:14;85715.00;;;-145.17;30.68
32759;BME280;19125;52.360;9.974;2023-05-18T10:24:41;85685.25;;;-145.17;30.35
32759;BME280;19125;52.360;9.974;2023-05-18T10:27:10;85619.75;;;-145.17;30.09
32759;BME280;19125;52.360;9.974;2023-05-18T10:29:39;85615.78;;;-145.17;30.18
32759;BME280;19125;52.360;9.974;2023-05-18T10:32:05;85552.31;;;-145.17;29.74
32759;BME280;19125;52.360;9.974;2023-05-18T10:34:33;85516.59;;;-145.17;29.58
32759;BME280;19125;52.360;9.974;2023-05-18T10:37:03;85498.75;;;-145.17;28.98
32759;BME280;19125;52.360;9.974;2023-05-18T10:39:32;85482.88;;;-145.17;29.68
32759;BME280;19125;52.360;9.974;2023-05-18T10:42:01;85449.13;;;-145.17;29.37
32759;BME280;19125;52.360;9.974;2023-05-18T10:44:27;85429.28;;;-145.17;28.55
32759;BME280;19125;52.360;9.974;2023-05-18T10:46:53;85411.44;;;-145.17;28.23
32759;BME280;19125;52.360;9.974;2023-05-18T10:49:26;85429.28;;;-145.17;28.36
32759;BME280;19125;52.360;9.974;2023-05-18T10:51:52;85407.47;;;-145.17;27.84
32759;BME280;19125;52.360;9.974;2023-05-18T10:54:21;85447.16;;;-145.17;27.30
32759;BME280;19125;52.360;9.974;2023-05-18T10:56:50;85472.94;;;-145.17;27.57
32759;BME280;19125;52.360;9.974;2023-05-18T10:59:16;85494.78;;;-145.17;28.11
32759;BME280;19125;52.360;9.974;2023-05-18T11:01:43;85564.22;;;-145.17;29.03
32759;BME280;19125;52.360;9.974;2023-05-18T11:04:10;85536.44;;;-145.17;29.38
32759;BME280;19125;52.360;9.974;2023-05-18T11:06:35;85538.41;;;-145.17;29.01
32759;BME280;19125;52.360;9.974;2023-05-18T11:09:01;85588.03;;;-145.17;29.24
32759;BME280;19125;52.360;9.974;2023-05-18T11:11:27;85550.31;;;-145.17;28.63
32759;BME280;19125;52.360;9.974;2023-05-18T11:14:02;85536.44;;;-145.17;29.25
32759;BME280;19125;52.360;9.974;2023-05-18T11:16:32;85572.16;;;-145.17;29.02
32759;BME280;19125;52.360;9.974;2023-05-18T11:19:08;85506.66;;;-145.17;29.32
32759;BME280;19125;52.360;9.974;2023-05-18T11:24:28;85453.09;;;-145.17;27.53
32759;BME280;19125;52.360;9.974;2023-05-18T11:29:40;85417.38;;;-145.17;26.92
32759;BME280;19125;52.360;9.974;2023-05-18T11:32:23;85455.09;;;-145.17;27.70
32759;BME280;19125;52.360;9.974;2023-05-18T11:34:51;85461.03;;;-145.17;28.32
32759;BME280;19125;52.360;9.974;2023-05-18T11:40:03;85415.41;;;-145.17;27.74
32759;BME280;19125;52.360;9.974;2023-05-18T11:42:33;85405.50;;;-145.17;27.31
32759;BME280;19125;52.360;9.974;2023-05-18T11:45:05;85377.72;;;-145.17;27.31
32759;BME280;19125;52.360;9.974;2023-05-18T11:47:31;85357.88;;;-145.17;26.97
32759;BME280;19125;52.360;9.974;2023-05-18T11:49:57;85322.16;;;-145.17;26.93
32759;BME280;19125;52.360;9.974;2023-05-18T11:52:25;85316.22;;;-145.17;26.50
32759;BME280;19125;52.360;9.974;2023-05-18T11:54:57;85365.81;;;-145.17;26.65
32759;BME280;19125;52.360;9.974;2023-05-18T11:59:59;85417.38;;;-145.17;27.64
32759;BME280;19125;52.360;9.974;2023-05-18T12:02:32;85395.56;;;-145.17;27.23
32759;BME280;19125;52.360;9.974;2023-05-18T12:04:58;85401.53;;;-145.17;26.93
32759;BME280;19125;52.360;9.974;2023-05-18T12:07:25;85437.22;;;-145.17;27.04
32759;BME280;19125;52.360;9.974;2023-05-18T12:09:56;85488.81;;;-145.17;27.05
32759;BME280;19125;52.360;9.974;2023-05-18T12:12:22;85482.88;;;-145.17;27.23
32759;BME280;19125;52.360;9.974;2023-05-18T12:15:07;85437.22;;;-145.17;27.97
32759;BME280;19125;52.360;9.974;2023-05-18T12:17:41;85441.19;;;-145.17;27.93
32759;BME280;19125;52.360;9.974;2023-05-18T12:20:09;85373.75;;;-145.17;27.30
32759;BME280;19125;52.360;9.974;2023-05-18T12:22:36;85363.81;;;-145.17;27.12
32759;BME280;19125;52.360;9.974;2023-05-18T12:25:01;85349.94;;;-145.17;26.44
32759;BME280;19125;52.360;9.974;2023-05-18T12:27:27;85375.72;;;-145.17;26.02
32759;BME280;19125;52.360;9.974;2023-05-18T12:29:53;85379.69;;;-145.17;26.84
32759;BME280;19125;52.360;9.974;2023-05-18T12:32:18;85397.56;;;-145.17;27.11
32759;BME280;19125;52.360;9.974;2023-05-18T12:34:44;85340.00;;;-145.17;26.57
32759;BME280;19125;52.360;9.974;2023-05-18T12:37:09;85336.03;;;-145.17;26.60
32759;BME280;19125;52.360;9.974;2023-05-18T12:39:35;85377.72;;;-145.17;26.74
32759;BME280;19125;52.360;9.974;2023-05-18T12:42:13;85322.16;;;-145.17;26.85
32759;BME280;19125;52.360;9.974;2023-05-18T12:44:41;85310.25;;;-145.17;26.51
32759;BME280;19125;52.360;9.974;2023-05-18T12:47:13;85345.97;;;-145.17;26.61
32759;BME280;19125;52.360;9.974;2023-05-18T12:49:41;85330.09;;;-145.17;26.69
32759;BME280;19125;52.360;9.974;2023-05-18T12:52:11;85300.34;;;-145.17;26.45
32759;BME280;19125;52.360;9.974;2023-05-18T12:54:50;85334.06;;;-145.17;26.30
32759;BME280;19125;52.360;9.974;2023-05-18T12:57:20;85334.06;;;-145.17;27.12